Time;durP1;ratioP1;P1;durP2;ratioP2;P2;SDS_P1;SDS_P2;PMS_P1;PMS_P2;Temp;Humidity;BMP_temperature;BMP_pressure;BME280_temperature;BME280_humidity;BME280_pressure;Samples;Min_cycle;Max_cycle;Signal;HPM_P1;HPM_P2
2023/12/21 00:02:02;;;;;;;16.05;9.82;;;;;;;;;;4906306;29;20070;-75
2023/12/21 00:04:30;;;;;;;17.45;9.13;;;;;;;;;;4890503;29;20191;-74
2023/12/21 00:06:57;;;;;;;17.60;9.05;;;;;;;;;;4906470;29;20035;-75
2023/12/21 00:09:23;;;;;;;17.23;9.18;;;;;;;;;;4904701;29;20115;-75
2023/12/21 00:11:50;;;;;;;18.08;9.07;;;;;;;;;;4892377;29;20114;-74
2023/12/21 00:14:18;;;;;;;16.33;8.82;;;;;;;;;;4889332;29;20032;-74
2023/12/21 00:16:44;;;;;;;17.55;8.75;;;;;;;;;;4908771;29;20034;-74
2023/12/21 00:19:10;;;;;;;14.02;7.20;;;;;;;;;;4885629;29;20064;-75
2023/12/21 00:21:36;;;;;;;24.08;8.00;;;;;;;;;;4892820;29;20031;-75
2023/12/21 00:24:04;;;;;;;15.77;6.75;;;;;;;;;;4891551;29;20048;-76
2023/12/21 00:26:30;;;;;;;17.00;7.57;;;;;;;;;;4892865;29;20067;-76
2023/12/21 00:28:57;;;;;;;14.50;6.60;;;;;;;;;;4891046;29;20823;-76
2023/12/21 00:31:24;;;;;;;13.95;6.80;;;;;;;;;;4902597;29;20038;-76
2023/12/21 00:33:50;;;;;;;13.32;6.38;;;;;;;;;;4892094;29;20043;-77
2023/12/21 00:36:17;;;;;;;15.10;7.20;;;;;;;;;;4888024;29;20031;-74
2023/12/21 00:38:44;;;;;;;14.35;6.28;;;;;;;;;;4891733;29;20047;-77
2023/12/21 00:41:11;;;;;;;13.55;6.05;;;;;;;;;;4902157;29;20474;-76
2023/12/21 00:43:38;;;;;;;12.63;5.18;;;;;;;;;;4891145;29;20047;-76
2023/12/21 00:46:06;;;;;;;14.05;5.75;;;;;;;;;;4893179;29;20090;-77
2023/12/21 00:48:34;;;;;;;15.20;5.80;;;;;;;;;;4891615;29;20035;-75
2023/12/21 00:51:01;;;;;;;12.55;6.00;;;;;;;;;;4902289;29;20031;-76
2023/12/21 00:53:29;;;;;;;12.88;6.25;;;;;;;;;;4889920;29;20040;-75
2023/12/21 00:55:55;;;;;;;13.68;6.60;;;;;;;;;;4891712;29;20027;-74
2023/12/21 00:58:23;;;;;;;15.57;6.13;;;;;;;;;;4901717;29;20118;-76
2023/12/21 01:00:50;;;;;;;14.38;6.70;;;;;;;;;;4904781;29;20822;-76
2023/12/21 01:03:17;;;;;;;13.35;6.28;;;;;;;;;;4905154;29;20031;-77
2023/12/21 01:05:45;;;;;;;18.58;7.25;;;;;;;;;;4907773;29;20036;-74
2023/12/21 01:08:12;;;;;;;13.70;6.68;;;;;;;;;;4904343;29;20035;-76
2023/12/21 01:10:40;;;;;;;14.25;6.28;;;;;;;;;;4904481;29;20147;-76
2023/12/21 01:13:08;;;;;;;12.65;5.80;;;;;;;;;;4888634;29;20039;-77
2023/12/21 01:15:34;;;;;;;13.80;6.18;;;;;;;;;;4906388;29;20036;-77
2023/12/21 01:18:01;;;;;;;13.93;6.45;;;;;;;;;;4906930;29;20111;-76
2023/12/21 01:20:29;;;;;;;13.40;5.82;;;;;;;;;;4903129;29;20553;-76
2023/12/21 01:22:55;;;;;;;14.15;6.40;;;;;;;;;;4891490;29;20103;-77
2023/12/21 01:25:22;;;;;;;14.57;6.57;;;;;;;;;;4888534;29;20044;-76
2023/12/21 01:27:50;;;;;;;13.73;6.18;;;;;;;;;;4910361;29;20034;-76
2023/12/21 01:30:21;;;;;;;15.95;5.70;;;;;;;;;;4907490;29;20393;-76
2023/12/21 01:32:48;;;;;;;12.68;5.47;;;;;;;;;;4893308;29;20210;-76
2023/12/21 01:35:16;;;;;;;12.32;5.20;;;;;;;;;;4906838;29;20130;-76
2023/12/21 01:37:43;;;;;;;14.40;4.93;;;;;;;;;;4908467;29;20063;-76
2023/12/21 01:40:11;;;;;;;11.57;4.50;;;;;;;;;;4903588;29;20050;-76
2023/12/21 01:42:39;;;;;;;12.48;4.82;;;;;;;;;;4891232;29;20040;-76
2023/12/21 01:45:07;;;;;;;13.07;4.30;;;;;;;;;;4905206;29;20530;-76
2023/12/21 01:47:35;;;;;;;13.82;4.93;;;;;;;;;;4907766;29;20031;-76
2023/12/21 01:50:05;;;;;;;12.75;4.20;;;;;;;;;;4910495;29;20106;-76
2023/12/21 01:52:33;;;;;;;15.20;4.57;;;;;;;;;;4893171;29;20046;-76
2023/12/21 01:55:00;;;;;;;14.95;4.70;;;;;;;;;;4909777;29;20115;-76
2023/12/21 01:57:26;;;;;;;13.25;4.68;;;;;;;;;;4893491;29;20042;-77
2023/12/21 01:59:53;;;;;;;12.90;4.22;;;;;;;;;;4911153;29;20035;-75
2023/12/21 02:02:21;;;;;;;15.10;4.25;;;;;;;;;;4905810;29;20083;-77
2023/12/21 02:04:48;;;;;;;11.60;4.15;;;;;;;;;;4894260;29;20036;-77
2023/12/21 02:07:14;;;;;;;14.57;4.43;;;;;;;;;;4904331;29;20043;-75
2023/12/21 02:09:43;;;;;;;15.70;4.60;;;;;;;;;;4893532;29;20469;-75
2023/12/21 02:12:10;;;;;;;12.25;4.07;;;;;;;;;;4891884;29;20047;-75
2023/12/21 02:14:37;;;;;;;12.95;3.80;;;;;;;;;;4893119;29;20072;-75
2023/12/21 02:17:06;;;;;;;10.82;3.75;;;;;;;;;;4892651;29;20051;-75
2023/12/21 02:19:33;;;;;;;10.82;4.20;;;;;;;;;;4896454;29;20309;-75
2023/12/21 02:22:03;;;;;;;10.88;3.65;;;;;;;;;;4889504;29;20047;-75
2023/12/21 02:24:30;;;;;;;10.43;3.67;;;;;;;;;;4905267;29;20036;-75
2023/12/21 02:26:57;;;;;;;10.45;3.55;;;;;;;;;;4906656;29;20016;-75
2023/12/21 02:29:23;;;;;;;11.75;3.83;;;;;;;;;;4907813;29;20024;-75
2023/12/21 02:31:49;;;;;;;13.25;3.97;;;;;;;;;;4895852;29;20024;-75
2023/12/21 02:34:17;;;;;;;11.63;3.63;;;;;;;;;;4905309;29;20500;-75
2023/12/21 02:36:45;;;;;;;10.77;3.63;;;;;;;;;;4909823;29;20048;-75
2023/12/21 02:39:12;;;;;;;11.48;3.70;;;;;;;;;;4888657;29;20031;-74
2023/12/21 02:41:41;;;;;;;10.10;3.80;;;;;;;;;;4906455;29;20040;-75
2023/12/21 02:44:09;;;;;;;10.82;3.78;;;;;;;;;;4905378;29;20054;-74
2023/12/21 02:46:35;;;;;;;11.20;4.15;;;;;;;;;;4890721;29;20042;-75
2023/12/21 02:49:01;;;;;;;11.32;3.67;;;;;;;;;;4909290;29;20036;-77
2023/12/21 02:51:27;;;;;;;10.80;3.67;;;;;;;;;;4890908;29;20170;-74
2023/12/21 02:53:53;;;;;;;15.57;4.32;;;;;;;;;;4911433;29;20597;-74
2023/12/21 02:56:21;;;;;;;12.10;3.45;;;;;;;;;;4893257;29;20032;-75
2023/12/21 02:58:48;;;;;;;11.10;3.63;;;;;;;;;;4893988;29;20597;-77
2023/12/21 03:01:16;;;;;;;12.60;3.85;;;;;;;;;;4909146;28;20032;-74
2023/12/21 03:03:43;;;;;;;10.52;3.47;;;;;;;;;;4908591;29;20063;-74
2023/12/21 03:06:11;;;;;;;12.82;4.30;;;;;;;;;;4895053;29;20154;-74
2023/12/21 03:08:38;;;;;;;9.95;3.47;;;;;;;;;;4913458;29;20039;-74
2023/12/21 03:11:06;;;;;;;10.95;3.72;;;;;;;;;;4910869;29;20193;-75
2023/12/21 03:13:33;;;;;;;11.30;3.78;;;;;;;;;;4912593;29;20042;-75
2023/12/21 03:16:07;;;;;;;9.57;3.40;;;;;;;;;;4896685;29;20050;-76
2023/12/21 03:18:34;;;;;;;9.88;3.85;;;;;;;;;;4910284;29;20605;-75
2023/12/21 03:21:01;;;;;;;10.68;3.50;;;;;;;;;;4910206;29;20032;-75
2023/12/21 03:23:27;;;;;;;11.70;3.95;;;;;;;;;;4895999;29;20067;-75
2023/12/21 03:25:53;;;;;;;11.90;3.85;;;;;;;;;;4912955;29;20043;-76
2023/12/21 03:28:20;;;;;;;10.73;3.88;;;;;;;;;;4908976;29;20032;-75
2023/12/21 03:30:47;;;;;;;11.43;3.78;;;;;;;;;;4897227;29;20127;-77
2023/12/21 03:33:16;;;;;;;10.43;3.50;;;;;;;;;;4896939;29;20035;-74
2023/12/21 03:35:43;;;;;;;10.85;3.58;;;;;;;;;;4911451;29;20034;-74
2023/12/21 03:38:12;;;;;;;10.32;3.70;;;;;;;;;;4894674;29;20793;-74
2023/12/21 03:40:39;;;;;;;12.32;3.83;;;;;;;;;;4912943;29;20034;-74
2023/12/21 03:43:07;;;;;;;11.35;3.83;;;;;;;;;;4910921;29;20082;-75
2023/12/21 03:45:39;;;;;;;13.10;4.05;;;;;;;;;;4910004;29;20055;-74
2023/12/21 03:48:12;;;;;;;10.50;4.10;;;;;;;;;;4891685;29;20039;-74
2023/12/21 03:50:41;;;;;;;11.25;3.95;;;;;;;;;;4912261;29;20195;-76
2023/12/21 03:53:08;;;;;;;13.60;4.00;;;;;;;;;;4905455;29;20035;-76
2023/12/21 03:55:37;;;;;;;12.00;4.20;;;;;;;;;;4907359;29;20031;-76
2023/12/21 03:58:05;;;;;;;12.50;3.83;;;;;;;;;;4912353;29;20035;-76
2023/12/21 04:00:31;;;;;;;12.50;3.85;;;;;;;;;;4910438;29;20028;-76
2023/12/21 04:02:57;;;;;;;12.20;3.45;;;;;;;;;;4896858;29;20035;-76
2023/12/21 04:05:24;;;;;;;11.55;4.00;;;;;;;;;;4906386;29;20111;-76
2023/12/21 04:07:51;;;;;;;11.50;3.65;;;;;;;;;;4911761;29;20105;-74
2023/12/21 04:10:18;;;;;;;9.90;3.40;;;;;;;;;;4910490;29;20034;-75
2023/12/21 04:12:45;;;;;;;12.00;3.92;;;;;;;;;;4907819;29;20179;-75
2023/12/21 04:15:13;;;;;;;11.80;3.97;;;;;;;;;;4906218;29;20028;-75
2023/12/21 04:17:41;;;;;;;13.13;3.50;;;;;;;;;;4895283;29;20043;-74
2023/12/21 04:20:10;;;;;;;12.57;4.00;;;;;;;;;;4893615;29;20538;-75
2023/12/21 04:22:38;;;;;;;13.48;3.60;;;;;;;;;;4895675;29;20078;-75
2023/12/21 04:25:06;;;;;;;13.52;4.22;;;;;;;;;;4897386;29;20669;-74
2023/12/21 04:27:34;;;;;;;11.27;4.13;;;;;;;;;;4914014;29;20118;-75
2023/12/21 04:30:02;;;;;;;13.10;4.38;;;;;;;;;;4911545;29;20035;-75
2023/12/21 04:32:28;;;;;;;12.57;4.00;;;;;;;;;;4892507;29;20692;-75
2023/12/21 04:34:54;;;;;;;12.25;3.88;;;;;;;;;;4915989;29;20066;-76
2023/12/21 04:37:22;;;;;;;12.50;3.88;;;;;;;;;;4908357;29;20115;-74
2023/12/21 04:39:49;;;;;;;10.00;3.60;;;;;;;;;;4915486;29;20024;-77
2023/12/21 04:42:16;;;;;;;12.65;4.78;;;;;;;;;;4907264;29;20028;-77
2023/12/21 04:44:44;;;;;;;10.80;4.10;;;;;;;;;;4896145;29;20038;-75
2023/12/21 04:47:11;;;;;;;12.55;3.90;;;;;;;;;;4908995;29;20091;-76
2023/12/21 04:49:39;;;;;;;;;;;;;;;;;;4909056;29;20043;-75
2023/12/21 04:52:06;;;;;;;14.13;4.03;;;;;;;;;;4890944;29;19914;-75
2023/12/21 04:54:34;;;;;;;12.43;4.43;;;;;;;;;;4894571;29;20031;-75
2023/12/21 04:57:01;;;;;;;11.05;3.65;;;;;;;;;;4908304;29;20027;-75
2023/12/21 04:59:28;;;;;;;13.88;3.90;;;;;;;;;;4905994;29;20063;-75
2023/12/21 05:01:56;;;;;;;13.02;4.00;;;;;;;;;;4909478;29;20136;-75
2023/12/21 05:04:23;;;;;;;10.10;3.50;;;;;;;;;;4907905;29;20047;-75
2023/12/21 05:06:50;;;;;;;14.70;3.80;;;;;;;;;;4893409;29;20036;-75
2023/12/21 05:09:18;;;;;;;14.52;4.10;;;;;;;;;;4905842;29;20027;-75
2023/12/21 05:11:45;;;;;;;11.15;3.88;;;;;;;;;;4894544;29;20097;-74
2023/12/21 05:14:13;;;;;;;11.52;4.07;;;;;;;;;;4904797;29;20031;-75
2023/12/21 05:16:40;;;;;;;12.25;4.57;;;;;;;;;;4895679;29;20467;-75
2023/12/21 05:19:07;;;;;;;14.38;4.88;;;;;;;;;;4890890;29;20283;-75
2023/12/21 05:21:33;;;;;;;13.07;4.00;;;;;;;;;;4910066;29;20032;-74
2023/12/21 05:24:00;;;;;;;;;;;;;;;;;;4890440;29;20040;-75
2023/12/21 05:26:28;;;;;;;;;;;;;;;;;;4891433;29;19918;-75
2023/12/21 05:28:57;;;;;;;12.10;4.35;;;;;;;;;;4905197;29;20365;-75
2023/12/21 05:31:24;;;;;;;13.48;4.45;;;;;;;;;;4884737;29;20091;-75
2023/12/21 05:33:50;;;;;;;13.07;4.70;;;;;;;;;;4889864;29;20032;-75
2023/12/21 05:36:27;;;;;;;11.27;4.10;;;;;;;;;;4886770;29;20111;-76
2023/12/21 05:38:55;;;;;;;15.20;4.72;;;;;;;;;;4887649;29;20581;-75
2023/12/21 05:41:21;;;;;;;12.98;4.70;;;;;;;;;;4883429;29;20028;-74
2023/12/21 05:43:49;;;;;;;12.18;4.38;;;;;;;;;;4892907;29;20063;-74
2023/12/21 05:46:17;;;;;;;12.15;4.72;;;;;;;;;;4887598;29;20779;-75
2023/12/21 05:48:45;;;;;;;13.25;4.38;;;;;;;;;;4887439;29;20648;-73
2023/12/21 05:51:32;;;;;;;15.88;5.40;;;;;;;;;;4887699;29;20032;-74
2023/12/21 05:53:58;;;;;;;;;;;;;;;;;;4887978;29;20032;-74
2023/12/21 05:56:26;;;;;;;14.75;6.22;;;;;;;;;;4889361;29;19998;-75
2023/12/21 05:58:52;;;;;;;16.33;5.68;;;;;;;;;;4892523;29;20052;-75
2023/12/21 06:01:19;;;;;;;15.20;6.00;;;;;;;;;;4886361;29;20111;-75
2023/12/21 06:03:47;;;;;;;14.32;5.25;;;;;;;;;;4887494;29;20566;-74
2023/12/21 06:06:16;;;;;;;14.05;5.80;;;;;;;;;;4883151;29;20110;-74
2023/12/21 06:08:43;;;;;;;16.73;5.53;;;;;;;;;;4893139;29;20060;-76
2023/12/21 06:11:10;;;;;;;19.17;6.07;;;;;;;;;;4887221;29;20091;-76
2023/12/21 06:13:37;;;;;;;17.00;5.53;;;;;;;;;;4889431;29;20168;-77
2023/12/21 06:16:11;;;;;;;11.18;4.35;;;;;;;;;;4889142;29;20032;-74
2023/12/21 06:18:37;;;;;;;17.17;5.35;;;;;;;;;;4890452;29;20032;-76
2023/12/21 06:21:05;;;;;;;19.88;5.38;;;;;;;;;;4887828;29;20032;-76
2023/12/21 06:23:32;;;;;;;17.85;5.15;;;;;;;;;;4886864;29;20046;-76
2023/12/21 06:26:00;;;;;;;12.80;4.13;;;;;;;;;;4888765;29;20614;-76
2023/12/21 06:28:27;;;;;;;12.15;4.22;;;;;;;;;;4891745;29;20044;-76
2023/12/21 06:30:53;;;;;;;10.88;4.00;;;;;;;;;;4889729;29;20175;-75
2023/12/21 06:33:20;;;;;;;12.57;4.25;;;;;;;;;;4886283;29;20491;-76
2023/12/21 06:35:48;;;;;;;12.15;3.95;;;;;;;;;;4886719;29;20028;-76
2023/12/21 06:38:14;;;;;;;15.07;4.90;;;;;;;;;;4891993;29;20070;-75
2023/12/21 06:40:42;;;;;;;12.52;4.55;;;;;;;;;;4893865;29;20063;-76
2023/12/21 06:43:09;;;;;;;12.82;4.47;;;;;;;;;;4893613;29;20050;-75
2023/12/21 06:45:37;;;;;;;10.55;4.00;;;;;;;;;;4896452;29;21020;-76
2023/12/21 06:48:03;;;;;;;13.23;4.65;;;;;;;;;;4896810;29;20083;-76
2023/12/21 06:50:31;;;;;;;16.17;5.30;;;;;;;;;;4891771;29;20043;-76
2023/12/21 06:52:59;;;;;;;16.48;5.22;;;;;;;;;;4894847;29;20040;-75
2023/12/21 06:55:25;;;;;;;16.88;5.00;;;;;;;;;;4891210;29;20036;-75
2023/12/21 06:57:52;;;;;;;16.30;5.00;;;;;;;;;;4892855;29;20337;-75
2023/12/21 07:00:19;;;;;;;12.75;4.80;;;;;;;;;;4889400;29;20038;-76
2023/12/21 07:02:46;;;;;;;16.02;5.78;;;;;;;;;;4891877;29;20024;-76
2023/12/21 07:05:14;;;;;;;14.18;5.70;;;;;;;;;;4874833;29;20064;-76
2023/12/21 07:07:40;;;;;;;14.50;5.45;;;;;;;;;;4892432;29;20779;-75
2023/12/21 07:10:08;;;;;;;14.77;5.95;;;;;;;;;;4889629;29;20032;-75
2023/12/21 07:12:38;;;;;;;15.70;6.40;;;;;;;;;;4889832;29;20036;-77
2023/12/21 07:15:06;;;;;;;14.52;6.28;;;;;;;;;;4888914;29;20062;-76
2023/12/21 07:17:41;;;;;;;15.55;7.20;;;;;;;;;;4888473;29;20020;-77
2023/12/21 07:20:10;;;;;;;16.63;8.63;;;;;;;;;;4891119;29;20432;-81
2023/12/21 07:22:36;;;;;;;17.67;9.50;;;;;;;;;;4892828;29;20100;-81
2023/12/21 07:25:02;;;;;;;18.75;10.77;;;;;;;;;;4893655;29;20032;-81
2023/12/21 07:27:29;;;;;;;24.85;13.80;;;;;;;;;;4889629;29;20037;-80
2023/12/21 07:29:55;;;;;;;25.17;14.45;;;;;;;;;;4893109;29;20043;-81
2023/12/21 07:32:21;;;;;;;20.75;12.55;;;;;;;;;;4903601;29;20048;-81
2023/12/21 07:34:48;;;;;;;20.27;11.52;;;;;;;;;;4894758;29;20031;-79
2023/12/21 07:37:16;;;;;;;16.10;9.75;;;;;;;;;;4910637;29;20156;-79
2023/12/21 07:39:44;;;;;;;18.50;9.75;;;;;;;;;;4911776;29;20039;-79
2023/12/21 07:42:11;;;;;;;16.83;8.52;;;;;;;;;;4911149;29;20146;-79
2023/12/21 07:44:40;;;;;;;16.02;8.02;;;;;;;;;;4909234;29;20024;-80
2023/12/21 07:47:07;;;;;;;19.27;12.13;;;;;;;;;;4893537;29;20035;-80
2023/12/21 07:49:35;;;;;;;19.17;12.00;;;;;;;;;;4897067;29;20031;-79
2023/12/21 07:52:02;;;;;;;20.65;11.07;;;;;;;;;;4910351;29;20688;-80
2023/12/21 07:54:31;;;;;;;17.65;9.52;;;;;;;;;;4897227;29;20099;-79
2023/12/21 07:56:57;;;;;;;18.13;8.23;;;;;;;;;;4896798;29;20432;-79
2023/12/21 07:59:24;;;;;;;22.23;6.72;;;;;;;;;;4897670;29;20054;-78
2023/12/21 08:01:52;;;;;;;16.60;5.65;;;;;;;;;;4908543;29;20061;-79
2023/12/21 08:04:18;;;;;;;16.30;5.10;;;;;;;;;;4909329;29;20035;-79
2023/12/21 08:06:45;;;;;;;13.00;4.70;;;;;;;;;;4899317;29;20074;-80
2023/12/21 08:09:15;;;;;;;10.95;4.75;;;;;;;;;;4892758;29;20089;-79
2023/12/21 08:11:42;;;;;;;13.85;4.70;;;;;;;;;;4910485;29;20360;-80
2023/12/21 08:14:09;;;;;;;12.05;4.60;;;;;;;;;;4907155;28;20556;-79
2023/12/21 08:16:36;;;;;;;16.48;4.70;;;;;;;;;;4910620;29;20801;-78
2023/12/21 08:19:03;;;;;;;15.30;4.78;;;;;;;;;;4911938;29;20115;-79
2023/12/21 08:21:30;;;;;;;17.40;5.90;;;;;;;;;;4892345;29;20202;-79
2023/12/21 08:23:58;;;;;;;12.90;5.30;;;;;;;;;;4892614;29;20039;-79
2023/12/21 08:26:25;;;;;;;16.60;5.57;;;;;;;;;;4904294;29;20676;-80
2023/12/21 08:28:52;;;;;;;17.50;5.40;;;;;;;;;;4908323;29;20047;-79
2023/12/21 08:31:30;;;;;;;13.63;5.47;;;;;;;;;;4906303;29;20055;-80
2023/12/21 08:33:57;;;;;;;15.02;5.18;;;;;;;;;;4912581;29;20032;-80
2023/12/21 08:36:24;;;;;;;14.18;5.13;;;;;;;;;;4912250;29;20055;-79
2023/12/21 08:38:50;;;;;;;13.95;5.53;;;;;;;;;;4909932;29;20086;-79
2023/12/21 08:41:17;;;;;;;;;;;;;;;;;;4892375;29;20963;-80
2023/12/21 08:43:45;;;;;;;13.03;5.70;;;;;;;;;;4912691;29;19930;-81
2023/12/21 08:46:13;;;;;;;12.60;5.47;;;;;;;;;;4909780;29;20265;-80
2023/12/21 08:48:39;;;;;;;12.32;5.47;;;;;;;;;;4905764;29;20103;-79
2023/12/21 08:51:06;;;;;;;;;;;;;;;;;;4893259;29;20090;-78
2023/12/21 08:53:32;;;;;;;;;;;;;;;;;;4912133;29;19919;-79
2023/12/21 08:56:00;;;;;;;15.32;6.63;;;;;;;;;;4895532;29;19926;-81
2023/12/21 08:58:26;;;;;;;15.85;6.65;;;;;;;;;;4895484;29;21048;-81
2023/12/21 09:00:52;;;;;;;;;;;;;;;;;;4895391;29;20036;-82
2023/12/21 09:03:20;;;;;;;16.20;6.18;;;;;;;;;;4895181;29;19911;-79
2023/12/21 09:05:47;;;;;;;11.30;5.28;;;;;;;;;;4912734;29;20059;-79
2023/12/21 09:08:16;;;;;;;14.32;4.90;;;;;;;;;;4905275;29;20119;-79
2023/12/21 09:10:43;;;;;;;11.43;5.20;;;;;;;;;;4910672;29;20061;-80
2023/12/21 09:13:10;;;;;;;11.75;4.95;;;;;;;;;;4906890;29;20059;-79
2023/12/21 09:15:36;;;;;;;11.13;4.07;;;;;;;;;;4907265;29;20046;-80
2023/12/21 09:18:07;;;;;;;10.30;4.32;;;;;;;;;;4896260;29;20032;-79
2023/12/21 09:20:34;;;;;;;11.75;4.05;;;;;;;;;;4908924;29;20139;-80
2023/12/21 09:23:01;;;;;;;12.52;4.25;;;;;;;;;;4909813;29;20122;-81
2023/12/21 09:25:28;;;;;;;13.20;4.32;;;;;;;;;;4907097;29;20054;-79
2023/12/21 09:27:55;;;;;;;11.50;3.20;;;;;;;;;;4911560;29;20126;-80
2023/12/21 09:30:26;;;;;;;10.63;3.67;;;;;;;;;;4907888;29;20790;-79
2023/12/21 09:32:54;;;;;;;12.40;4.28;;;;;;;;;;4911039;29;20102;-79
2023/12/21 09:35:21;;;;;;;12.50;5.10;;;;;;;;;;4906202;29;20848;-79
2023/12/21 09:37:49;;;;;;;11.80;5.03;;;;;;;;;;4894531;29;21123;-81
2023/12/21 09:40:17;;;;;;;17.35;5.72;;;;;;;;;;4903908;29;20028;-81
2023/12/21 09:42:47;;;;;;;15.30;5.85;;;;;;;;;;4909551;29;20040;-80
2023/12/21 09:45:16;;;;;;;12.10;4.72;;;;;;;;;;4894203;29;20118;-80
2023/12/21 09:47:44;;;;;;;12.15;4.30;;;;;;;;;;4910171;29;20047;-79
2023/12/21 09:50:12;;;;;;;10.55;3.90;;;;;;;;;;4907675;29;20031;-81
2023/12/21 09:52:40;;;;;;;13.73;4.25;;;;;;;;;;4896529;29;20498;-80
2023/12/21 09:55:08;;;;;;;13.32;4.13;;;;;;;;;;4892221;29;20079;-80
2023/12/21 09:57:37;;;;;;;14.15;4.25;;;;;;;;;;4910281;29;20038;-80
2023/12/21 10:00:04;;;;;;;18.27;4.35;;;;;;;;;;4894853;29;20790;-80
2023/12/21 10:02:32;;;;;;;13.68;6.28;;;;;;;;;;4910750;29;20055;-80
2023/12/21 10:05:00;;;;;;;16.15;6.15;;;;;;;;;;4895666;29;20036;-80
2023/12/21 10:07:27;;;;;;;15.77;7.15;;;;;;;;;;4895557;29;20055;-80
2023/12/21 10:09:53;;;;;;;12.82;5.95;;;;;;;;;;4911015;29;20028;-80
2023/12/21 10:12:22;;;;;;;13.48;4.80;;;;;;;;;;4912744;29;20051;-79
2023/12/21 10:15:03;;;;;;;10.30;3.47;;;;;;;;;;4898718;29;20486;-81
2023/12/21 10:17:32;;;;;;;9.20;3.17;;;;;;;;;;4913320;29;20039;-79
2023/12/21 10:20:03;;;;;;;11.98;3.45;;;;;;;;;;4911459;29;20050;-78
2023/12/21 10:22:30;;;;;;;11.40;4.07;;;;;;;;;;4912413;29;20062;-78
2023/12/21 10:24:56;;;;;;;12.07;3.97;;;;;;;;;;4915002;29;20027;-81
2023/12/21 10:27:25;;;;;;;14.80;3.88;;;;;;;;;;4909633;29;20029;-80
2023/12/21 10:29:56;;;;;;;11.90;4.20;;;;;;;;;;4899805;29;20481;-79
2023/12/21 10:32:23;;;;;;;10.05;3.97;;;;;;;;;;4908299;29;20040;-79
2023/12/21 10:34:54;;;;;;;14.82;4.97;;;;;;;;;;4914934;29;20091;-79
2023/12/21 10:37:20;;;;;;;11.80;3.85;;;;;;;;;;4879557;29;20118;-81
2023/12/21 10:39:47;;;;;;;11.57;3.17;;;;;;;;;;4897511;29;20577;-81
2023/12/21 10:42:19;;;;;;;10.27;3.60;;;;;;;;;;4895472;29;20028;-81
2023/12/21 10:44:50;;;;;;;10.98;3.85;;;;;;;;;;4912958;29;20086;-81
2023/12/21 10:47:18;;;;;;;11.68;3.88;;;;;;;;;;4906504;29;20020;-80
2023/12/21 10:49:51;;;;;;;11.25;3.80;;;;;;;;;;4914161;29;20042;-80
2023/12/21 10:52:19;;;;;;;10.40;3.88;;;;;;;;;;4894296;29;20029;-80
2023/12/21 10:54:50;;;;;;;13.18;5.40;;;;;;;;;;4909966;29;20028;-80
2023/12/21 10:57:18;;;;;;;11.18;4.22;;;;;;;;;;4908471;29;20028;-80
2023/12/21 10:59:48;;;;;;;11.48;5.03;;;;;;;;;;4914155;29;20098;-80
2023/12/21 11:02:18;;;;;;;11.50;4.32;;;;;;;;;;4907177;29;20534;-79
2023/12/21 11:04:46;;;;;;;10.25;4.07;;;;;;;;;;4913446;29;20035;-79
2023/12/21 11:07:14;;;;;;;11.93;4.20;;;;;;;;;;4895277;29;20066;-79
2023/12/21 11:09:41;;;;;;;13.75;5.20;;;;;;;;;;4900892;29;20277;-80
2023/12/21 11:12:09;;;;;;;11.52;5.20;;;;;;;;;;4880420;29;20036;-80
2023/12/21 11:14:36;;;;;;;11.90;4.38;;;;;;;;;;4900274;29;20043;-79
2023/12/21 11:17:09;;;;;;;12.77;5.13;;;;;;;;;;4913189;29;20138;-79
2023/12/21 11:19:38;;;;;;;13.30;5.72;;;;;;;;;;4912176;29;20031;-79
2023/12/21 11:22:07;;;;;;;13.07;5.50;;;;;;;;;;4895151;29;20039;-80
2023/12/21 11:24:34;;;;;;;13.02;5.30;;;;;;;;;;4909892;29;20564;-79
2023/12/21 11:27:01;;;;;;;10.38;4.68;;;;;;;;;;4910463;29;20521;-79
2023/12/21 11:29:29;;;;;;;11.88;4.57;;;;;;;;;;4891200;29;20038;-77
2023/12/21 11:31:56;;;;;;;9.32;4.25;;;;;;;;;;4893249;29;20931;-81
2023/12/21 11:34:42;;;;;;;11.93;3.95;;;;;;;;;;4893162;29;20857;-78
2023/12/21 11:37:24;;;;;;;11.25;4.55;;;;;;;;;;4903197;29;20032;-78
2023/12/21 11:39:53;;;;;;;9.98;4.38;;;;;;;;;;4893120;29;20296;-79
2023/12/21 11:42:33;;;;;;;9.32;3.90;;;;;;;;;;4906405;29;20023;-79
2023/12/21 11:45:09;;;;;;;9.20;3.90;;;;;;;;;;4895444;29;20057;-78
2023/12/21 11:47:36;;;;;;;9.00;4.20;;;;;;;;;;4909181;29;20036;-79
2023/12/21 11:50:09;;;;;;;11.75;4.18;;;;;;;;;;4896203;29;20589;-79
2023/12/21 11:52:37;;;;;;;9.30;3.65;;;;;;;;;;4908523;29;20108;-77
2023/12/21 11:55:04;;;;;;;13.65;3.72;;;;;;;;;;4910625;29;20620;-78
2023/12/21 11:57:35;;;;;;;11.40;3.90;;;;;;;;;;4907189;29;20038;-78
2023/12/21 12:00:07;;;;;;;11.63;3.95;;;;;;;;;;4893302;29;20024;-80
2023/12/21 12:02:37;;;;;;;10.55;3.97;;;;;;;;;;4912068;29;20578;-80
2023/12/21 12:05:05;;;;;;;10.32;4.25;;;;;;;;;;4897929;29;20184;-80
2023/12/21 12:07:33;;;;;;;10.15;3.90;;;;;;;;;;4893647;29;20135;-81
2023/12/21 12:09:59;;;;;;;13.23;4.25;;;;;;;;;;4909088;29;20080;-80
2023/12/21 12:12:26;;;;;;;11.93;4.20;;;;;;;;;;4906619;29;20811;-80
2023/12/21 12:14:57;;;;;;;16.58;5.68;;;;;;;;;;4909394;29;20034;-80
2023/12/21 12:17:23;;;;;;;13.68;8.70;;;;;;;;;;4904906;29;20024;-80
2023/12/21 12:19:49;;;;;;;15.13;7.25;;;;;;;;;;4908987;29;20313;-79
2023/12/21 12:22:17;;;;;;;13.35;5.68;;;;;;;;;;4892257;29;20118;-79
2023/12/21 12:24:46;;;;;;;10.77;4.95;;;;;;;;;;4905836;29;20042;-80
2023/12/21 12:27:14;;;;;;;10.77;5.50;;;;;;;;;;4904684;29;20612;-80
2023/12/21 12:29:42;;;;;;;12.40;5.78;;;;;;;;;;4894841;29;20521;-80
2023/12/21 12:32:11;;;;;;;9.55;4.15;;;;;;;;;;4907447;29;20082;-79
2023/12/21 12:34:44;;;;;;;10.18;4.40;;;;;;;;;;4907595;29;20039;-79
2023/12/21 12:37:17;;;;;;;13.70;4.32;;;;;;;;;;4909440;29;20024;-80
2023/12/21 12:39:44;;;;;;;13.30;6.68;;;;;;;;;;4906134;29;20024;-78
2023/12/21 12:42:12;;;;;;;11.40;5.28;;;;;;;;;;4904120;29;20036;-80
2023/12/21 12:44:39;;;;;;;12.70;5.05;;;;;;;;;;4894631;29;20530;-79
2023/12/21 12:47:07;;;;;;;11.48;6.10;;;;;;;;;;4907911;29;20815;-79
2023/12/21 12:49:35;;;;;;;11.52;4.80;;;;;;;;;;4909388;29;20118;-80
2023/12/21 12:52:07;;;;;;;13.20;5.53;;;;;;;;;;4893936;29;20031;-79
2023/12/21 12:54:35;;;;;;;10.88;4.32;;;;;;;;;;4907216;29;20032;-79
2023/12/21 12:57:03;;;;;;;10.80;4.40;;;;;;;;;;4899477;29;20043;-79
2023/12/21 12:59:29;;;;;;;10.20;3.92;;;;;;;;;;4908544;29;20106;-80
2023/12/21 13:01:55;;;;;;;8.98;2.97;;;;;;;;;;4896803;29;20441;-79
2023/12/21 13:04:22;;;;;;;7.43;2.53;;;;;;;;;;4907839;29;20039;-79
2023/12/21 13:06:51;;;;;;;9.63;3.42;;;;;;;;;;4908750;29;20043;-79
2023/12/21 13:09:19;;;;;;;9.35;3.63;;;;;;;;;;4894268;29;20023;-79
2023/12/21 13:11:47;;;;;;;7.07;1.90;;;;;;;;;;4893084;29;20036;-79
2023/12/21 13:14:17;;;;;;;5.40;1.42;;;;;;;;;;4891337;29;20036;-80
2023/12/21 13:16:44;;;;;;;4.75;1.10;;;;;;;;;;4908451;29;20043;-81
2023/12/21 13:19:12;;;;;;;4.80;0.77;;;;;;;;;;4905917;29;20082;-81
2023/12/21 13:21:40;;;;;;;3.88;0.93;;;;;;;;;;4906184;29;20036;-80
2023/12/21 13:24:07;;;;;;;4.20;0.90;;;;;;;;;;4903425;29;20031;-80
2023/12/21 13:26:35;;;;;;;4.85;0.73;;;;;;;;;;4908826;29;20062;-79
2023/12/21 13:29:05;;;;;;;2.85;0.80;;;;;;;;;;4908502;29;20209;-79
2023/12/21 13:31:31;;;;;;;6.97;1.10;;;;;;;;;;4879343;29;20060;-79
2023/12/21 13:33:58;;;;;;;2.92;0.73;;;;;;;;;;4872016;29;20287;-79
2023/12/21 13:36:24;;;;;;;5.82;1.60;;;;;;;;;;4865808;29;20036;-78
2023/12/21 13:38:50;;;;;;;7.13;2.38;;;;;;;;;;4871502;29;20048;-79
2023/12/21 13:41:17;;;;;;;7.93;2.75;;;;;;;;;;4869400;29;20029;-77
2023/12/21 13:43:44;;;;;;;8.77;3.00;;;;;;;;;;4873305;29;20029;-78
2023/12/21 13:46:14;;;;;;;8.18;3.00;;;;;;;;;;4866809;29;20036;-78
2023/12/21 13:48:41;;;;;;;7.90;3.00;;;;;;;;;;4871567;29;20578;-79
2023/12/21 13:51:08;;;;;;;8.70;2.97;;;;;;;;;;4864136;29;20040;-80
2023/12/21 13:53:36;;;;;;;8.35;2.88;;;;;;;;;;4869223;29;20040;-78
2023/12/21 13:56:03;;;;;;;7.78;2.58;;;;;;;;;;4870770;29;20029;-77
2023/12/21 13:58:30;;;;;;;7.72;2.80;;;;;;;;;;4867990;29;20374;-79
2023/12/21 14:00:57;;;;;;;6.60;2.33;;;;;;;;;;4873074;29;20021;-78
2023/12/21 14:03:24;;;;;;;6.25;2.50;;;;;;;;;;4869284;29;20052;-78
2023/12/21 14:05:52;;;;;;;8.45;3.03;;;;;;;;;;4870448;29;20884;-78
2023/12/21 14:08:21;;;;;;;8.32;1.63;;;;;;;;;;4887750;29;20040;-78
2023/12/21 14:10:48;;;;;;;7.30;1.65;;;;;;;;;;4874863;29;20040;-79
2023/12/21 14:13:16;;;;;;;5.90;1.85;;;;;;;;;;4870110;29;20315;-77
2023/12/21 14:15:43;;;;;;;6.70;2.10;;;;;;;;;;4873887;29;20598;-79
2023/12/21 14:18:11;;;;;;;6.28;1.83;;;;;;;;;;4868466;29;20028;-79
2023/12/21 14:20:38;;;;;;;7.07;2.05;;;;;;;;;;4870317;29;20040;-78
2023/12/21 14:23:06;;;;;;;8.68;2.38;;;;;;;;;;4869624;29;20041;-79
2023/12/21 14:25:33;;;;;;;10.23;2.90;;;;;;;;;;4871376;29;20119;-78
2023/12/21 14:28:00;;;;;;;7.65;2.80;;;;;;;;;;4872256;29;20556;-79
2023/12/21 14:30:26;;;;;;;8.90;2.80;;;;;;;;;;4870466;29;20040;-80
2023/12/21 14:32:52;;;;;;;9.45;2.95;;;;;;;;;;4891919;29;20036;-77
2023/12/21 14:35:20;;;;;;;8.45;2.80;;;;;;;;;;4886713;29;20032;-80
2023/12/21 14:37:46;;;;;;;10.77;2.72;;;;;;;;;;4907641;29;20032;-78